sensor_id;sensor_type;location;lat;lon;timestamp;pressure;altitude;pressure_sealevel;temperature;humidity
10881;BME280;5493;48.884;8.338;2023-09-18T00:01:39;99447.63;;;21.96;100.00
10881;BME280;5493;48.884;8.338;2023-09-18T00:04:06;99434.97;;;22.09;100.00
10881;BME280;5493;48.884;8.338;2023-09-18T00:06:32;99445.97;;;21.65;100.00
10881;BME280;5493;48.884;8.338;2023-09-18T00:08:59;99440.22;;;21.52;100.00
10881;BME280;5493;48.884;8.338;2023-09-18T00:11:26;99443.56;;;21.41;100.00
10881;BME280;5493;48.884;8.338;2023-09-18T00:13:54;99441.09;;;21.84;100.00
10881;BME280;5493;48.884;8.338;2023-09-18T00:16:21;99429.38;;;21.92;100.00
10881;BME280;5493;48.884;8.338;2023-09-18T00:18:47;99426.13;;;21.68;100.00
10881;BME280;5493;48.884;8.338;2023-09-18T00:21:14;99419.31;;;21.87;100.00
10881;BME280;5493;48.884;8.338;2023-09-18T00:23:41;99428.94;;;21.98;100.00
10881;BME280;5493;48.884;8.338;2023-09-18T00:26:08;99429.22;;;21.97;100.00
10881;BME280;5493;48.884;8.338;2023-09-18T00:28:34;99417.09;;;22.20;100.00
10881;BME280;5493;48.884;8.338;2023-09-18T00:31:02;99414.84;;;21.91;100.00
10881;BME280;5493;48.884;8.338;2023-09-18T00:33:29;99413.72;;;22.32;100.00
10881;BME280;5493;48.884;8.338;2023-09-18T00:35:55;99418.78;;;22.07;100.00
10881;BME280;5493;48.884;8.338;2023-09-18T00:38:22;99412.75;;;22.28;100.00
10881;BME280;5493;48.884;8.338;2023-09-18T00:40:48;99409.47;;;22.17;100.00
10881;BME280;5493;48.884;8.338;2023-09-18T00:43:15;99414.34;;;22.29;100.00
10881;BME280;5493;48.884;8.338;2023-09-18T00:45:44;99415.75;;;22.09;100.00
10881;BME280;5493;48.884;8.338;2023-09-18T00:48:14;99434.50;;;22.16;100.00
10881;BME280;5493;48.884;8.338;2023-09-18T00:50:40;99444.66;;;22.06;100.00
10881;BME280;5493;48.884;8.338;2023-09-18T00:53:07;99437.38;;;21.57;100.00
10881;BME280;5493;48.884;8.338;2023-09-18T00:55:36;99444.94;;;21.52;100.00
10881;BME280;5493;48.884;8.338;2023-09-18T00:58:03;99450.34;;;21.66;100.00
10881;BME280;5493;48.884;8.338;2023-09-18T01:00:30;99463.13;;;21.70;100.00
10881;BME280;5493;48.884;8.338;2023-09-18T01:02:56;99465.09;;;21.78;100.00
10881;BME280;5493;48.884;8.338;2023-09-18T01:05:24;99472.22;;;21.79;100.00
10881;BME280;5493;48.884;8.338;2023-09-18T01:07:51;99468.13;;;21.90;100.00
10881;BME280;5493;48.884;8.338;2023-09-18T01:10:18;99472.69;;;21.95;100.00
10881;BME280;5493;48.884;8.338;2023-09-18T01:12:46;99467.75;;;22.14;100.00
10881;BME280;5493;48.884;8.338;2023-09-18T01:15:17;99468.19;;;22.38;100.00
10881;BME280;5493;48.884;8.338;2023-09-18T01:17:48;99479.75;;;22.66;100.00
10881;BME280;5493;48.884;8.338;2023-09-18T01:20:15;99489.53;;;22.81;100.00
10881;BME280;5493;48.884;8.338;2023-09-18T01:22:42;99484.41;;;22.96;100.00
10881;BME280;5493;48.884;8.338;2023-09-18T01:25:09;99469.19;;;22.99;100.00
10881;BME280;5493;48.884;8.338;2023-09-18T01:27:36;99455.63;;;23.11;100.00
10881;BME280;5493;48.884;8.338;2023-09-18T01:30:03;99458.22;;;23.25;100.00
10881;BME280;5493;48.884;8.338;2023-09-18T01:32:31;99469.41;;;23.28;100.00
10881;BME280;5493;48.884;8.338;2023-09-18T01:35:00;99479.84;;;22.83;100.00
10881;BME280;5493;48.884;8.338;2023-09-18T01:37:29;99474.22;;;22.97;100.00
10881;BME280;5493;48.884;8.338;2023-09-18T01:39:58;99470.69;;;23.14;100.00
10881;BME280;5493;48.884;8.338;2023-09-18T01:42:25;99485.91;;;23.28;100.00
10881;BME280;5493;48.884;8.338;2023-09-18T01:44:52;99491.88;;;23.22;100.00
10881;BME280;5493;48.884;8.338;2023-09-18T01:47:20;99492.41;;;23.49;100.00
10881;BME280;5493;48.884;8.338;2023-09-18T01:49:48;99507.22;;;23.23;100.00
10881;BME280;5493;48.884;8.338;2023-09-18T01:52:15;99508.69;;;23.20;100.00
10881;BME280;5493;48.884;8.338;2023-09-18T01:54:42;99520.19;;;23.31;100.00
10881;BME280;5493;48.884;8.338;2023-09-18T01:57:09;99530.06;;;23.32;100.00
10881;BME280;5493;48.884;8.338;2023-09-18T01:59:37;99534.78;;;23.40;100.00
10881;BME280;5493;48.884;8.338;2023-09-18T02:02:04;99548.25;;;23.50;100.00
10881;BME280;5493;48.884;8.338;2023-09-18T02:04:32;99544.84;;;23.53;100.00
10881;BME280;5493;48.884;8.338;2023-09-18T02:06:59;99562.13;;;23.36;100.00
10881;BME280;5493;48.884;8.338;2023-09-18T02:09:26;99579.91;;;23.22;100.00
10881;BME280;5493;48.884;8.338;2023-09-18T02:11:52;99568.06;;;23.13;100.00
10881;BME280;5493;48.884;8.338;2023-09-18T02:14:20;99560.75;;;23.08;100.00
10881;BME280;5493;48.884;8.338;2023-09-18T02:16:47;99557.59;;;23.32;100.00
10881;BME280;5493;48.884;8.338;2023-09-18T02:19:14;99537.50;;;23.23;100.00
10881;BME280;5493;48.884;8.338;2023-09-18T02:21:42;99537.25;;;23.50;100.00
10881;BME280;5493;48.884;8.338;2023-09-18T02:24:09;99525.88;;;23.34;100.00
10881;BME280;5493;48.884;8.338;2023-09-18T02:26:35;99540.28;;;23.40;100.00
10881;BME280;5493;48.884;8.338;2023-09-18T02:29:04;99528.66;;;23.43;100.00
10881;BME280;5493;48.884;8.338;2023-09-18T02:31:32;99513.88;;;23.22;100.00
10881;BME280;5493;48.884;8.338;2023-09-18T02:33:58;99495.78;;;23.55;100.00
10881;BME280;5493;48.884;8.338;2023-09-18T02:36:25;99486.25;;;23.61;100.00
10881;BME280;5493;48.884;8.338;2023-09-18T02:38:51;99466.03;;;23.66;100.00
10881;BME280;5493;48.884;8.338;2023-09-18T02:41:18;99478.00;;;23.52;100.00
10881;BME280;5493;48.884;8.338;2023-09-18T02:43:44;99480.88;;;23.30;100.00
10881;BME280;5493;48.884;8.338;2023-09-18T02:46:11;99491.56;;;23.32;100.00
10881;BME280;5493;48.884;8.338;2023-09-18T02:48:38;99467.94;;;23.14;100.00
10881;BME280;5493;48.884;8.338;2023-09-18T02:51:05;99468.88;;;23.26;100.00
10881;BME280;5493;48.884;8.338;2023-09-18T02:53:32;99487.50;;;23.21;100.00
10881;BME280;5493;48.884;8.338;2023-09-18T02:55:59;99504.31;;;23.11;100.00
10881;BME280;5493;48.884;8.338;2023-09-18T02:58:26;99491.84;;;23.04;100.00
10881;BME280;5493;48.884;8.338;2023-09-18T03:00:55;99508.16;;;22.92;100.00
10881;BME280;5493;48.884;8.338;2023-09-18T03:03:22;99508.03;;;23.06;100.00
10881;BME280;5493;48.884;8.338;2023-09-18T03:05:51;99503.19;;;23.20;100.00
10881;BME280;5493;48.884;8.338;2023-09-18T03:08:18;99505.78;;;23.17;100.00
10881;BME280;5493;48.884;8.338;2023-09-18T03:10:44;99506.13;;;23.24;100.00
10881;BME280;5493;48.884;8.338;2023-09-18T03:13:13;99527.47;;;23.27;100.00
10881;BME280;5493;48.884;8.338;2023-09-18T03:15:40;99536.06;;;23.25;100.00
10881;BME280;5493;48.884;8.338;2023-09-18T03:18:10;99565.50;;;23.25;100.00
10881;BME280;5493;48.884;8.338;2023-09-18T03:20:37;99584.41;;;23.26;100.00
10881;BME280;5493;48.884;8.338;2023-09-18T03:23:04;99653.13;;;23.09;100.00
10881;BME280;5493;48.884;8.338;2023-09-18T03:25:31;99658.81;;;23.04;100.00
10881;BME280;5493;48.884;8.338;2023-09-18T03:27:58;99657.41;;;22.62;100.00
10881;BME280;5493;48.884;8.338;2023-09-18T03:30:24;99678.75;;;22.65;100.00
10881;BME280;5493;48.884;8.338;2023-09-18T03:32:51;99688.94;;;22.65;100.00
10881;BME280;5493;48.884;8.338;2023-09-18T03:35:18;99690.72;;;22.61;100.00
10881;BME280;5493;48.884;8.338;2023-09-18T03:37:45;99693.47;;;22.61;100.00
10881;BME280;5493;48.884;8.338;2023-09-18T03:40:13;99695.56;;;22.41;100.00
10881;BME280;5493;48.884;8.338;2023-09-18T03:42:40;99702.34;;;22.22;100.00
10881;BME280;5493;48.884;8.338;2023-09-18T03:45:08;99691.75;;;22.06;100.00
10881;BME280;5493;48.884;8.338;2023-09-18T03:47:36;99675.69;;;21.86;100.00
10881;BME280;5493;48.884;8.338;2023-09-18T03:50:03;99656.00;;;21.71;100.00
10881;BME280;5493;48.884;8.338;2023-09-18T03:52:29;99636.28;;;21.69;100.00
10881;BME280;5493;48.884;8.338;2023-09-18T03:54:56;99628.16;;;21.64;100.00
10881;BME280;5493;48.884;8.338;2023-09-18T03:57:24;99613.88;;;21.53;100.00
10881;BME280;5493;48.884;8.338;2023-09-18T03:59:50;99587.97;;;21.45;100.00
10881;BME280;5493;48.884;8.338;2023-09-18T04:02:17;99578.28;;;21.26;100.00
10881;BME280;5493;48.884;8.338;2023-09-18T04:04:44;99541.22;;;21.15;100.00
10881;BME280;5493;48.884;8.338;2023-09-18T04:07:10;99510.88;;;21.11;100.00
10881;BME280;5493;48.884;8.338;2023-09-18T04:09:41;99479.72;;;20.93;100.00
10881;BME280;5493;48.884;8.338;2023-09-18T04:12:08;99460.19;;;20.95;100.00
10881;BME280;5493;48.884;8.338;2023-09-18T04:14:36;99441.78;;;20.73;100.00
10881;BME280;5493;48.884;8.338;2023-09-18T04:17:03;99436.19;;;20.78;100.00
10881;BME280;5493;48.884;8.338;2023-09-18T04:19:29;99412.06;;;20.67;100.00
10881;BME280;5493;48.884;8.338;2023-09-18T04:21:56;99421.78;;;20.86;100.00
10881;BME280;5493;48.884;8.338;2023-09-18T04:24:23;99401.91;;;21.03;100.00
10881;BME280;5493;48.884;8.338;2023-09-18T04:26:50;99393.69;;;21.03;100.00
10881;BME280;5493;48.884;8.338;2023-09-18T04:29:17;99402.34;;;20.96;100.00
10881;BME280;5493;48.884;8.338;2023-09-18T04:31:45;99390.38;;;20.92;100.00
10881;BME280;5493;48.884;8.338;2023-09-18T04:34:12;99399.00;;;20.99;100.00
10881;BME280;5493;48.884;8.338;2023-09-18T04:36:39;99389.31;;;21.02;100.00
10881;BME280;5493;48.884;8.338;2023-09-18T04:39:05;99381.47;;;21.09;100.00
10881;BME280;5493;48.884;8.338;2023-09-18T04:41:32;99376.25;;;20.99;100.00
10881;BME280;5493;48.884;8.338;2023-09-18T04:43:59;99364.31;;;21.17;100.00
10881;BME280;5493;48.884;8.338;2023-09-18T04:46:25;99375.03;;;21.05;100.00
10881;BME280;5493;48.884;8.338;2023-09-18T04:48:53;99393.88;;;21.06;100.00
10881;BME280;5493;48.884;8.338;2023-09-18T04:51:19;99406.00;;;20.92;100.00
10881;BME280;5493;48.884;8.338;2023-09-18T04:53:46;99403.97;;;20.97;100.00
10881;BME280;5493;48.884;8.338;2023-09-18T04:56:13;99402.84;;;20.98;100.00
10881;BME280;5493;48.884;8.338;2023-09-18T04:58:39;99405.78;;;21.02;100.00
10881;BME280;5493;48.884;8.338;2023-09-18T05:01:06;99412.41;;;21.01;100.00
10881;BME280;5493;48.884;8.338;2023-09-18T05:03:33;99415.19;;;21.09;100.00
10881;BME280;5493;48.884;8.338;2023-09-18T05:06:01;99410.81;;;21.22;100.00
10881;BME280;5493;48.884;8.338;2023-09-18T05:08:29;99416.34;;;21.31;100.00
10881;BME280;5493;48.884;8.338;2023-09-18T05:10:56;99405.56;;;21.34;100.00
10881;BME280;5493;48.884;8.338;2023-09-18T05:13:23;99414.13;;;21.33;100.00
10881;BME280;5493;48.884;8.338;2023-09-18T05:15:49;99413.31;;;21.32;100.00
10881;BME280;5493;48.884;8.338;2023-09-18T05:18:16;99411.69;;;21.53;100.00
10881;BME280;5493;48.884;8.338;2023-09-18T05:20:43;99419.78;;;21.58;100.00
10881;BME280;5493;48.884;8.338;2023-09-18T05:23:10;99418.03;;;21.63;100.00
10881;BME280;5493;48.884;8.338;2023-09-18T05:25:37;99431.06;;;21.57;100.00
10881;BME280;5493;48.884;8.338;2023-09-18T05:28:07;99432.44;;;21.68;100.00
10881;BME280;5493;48.884;8.338;2023-09-18T05:30:35;99450.97;;;21.63;100.00
10881;BME280;5493;48.884;8.338;2023-09-18T05:33:04;99458.75;;;21.69;100.00
10881;BME280;5493;48.884;8.338;2023-09-18T05:35:31;99471.09;;;21.58;100.00
10881;BME280;5493;48.884;8.338;2023-09-18T05:37:58;99472.78;;;21.68;100.00
10881;BME280;5493;48.884;8.338;2023-09-18T05:40:26;99483.53;;;21.55;100.00
10881;BME280;5493;48.884;8.338;2023-09-18T05:42:54;99487.28;;;21.46;100.00
10881;BME280;5493;48.884;8.338;2023-09-18T05:45:20;99485.31;;;21.60;100.00
10881;BME280;5493;48.884;8.338;2023-09-18T05:47:47;99489.66;;;21.39;100.00
10881;BME280;5493;48.884;8.338;2023-09-18T05:50:14;99489.38;;;21.40;100.00
10881;BME280;5493;48.884;8.338;2023-09-18T05:52:42;99485.38;;;21.46;100.00
10881;BME280;5493;48.884;8.338;2023-09-18T05:55:09;99495.97;;;21.39;100.00
10881;BME280;5493;48.884;8.338;2023-09-18T05:57:37;99498.47;;;21.49;100.00
10881;BME280;5493;48.884;8.338;2023-09-18T06:00:05;99502.66;;;21.47;100.00
10881;BME280;5493;48.884;8.338;2023-09-18T06:02:31;99507.44;;;21.41;100.00
10881;BME280;5493;48.884;8.338;2023-09-18T06:04:59;99511.41;;;21.35;100.00
10881;BME280;5493;48.884;8.338;2023-09-18T06:07:26;99531.66;;;21.26;100.00
10881;BME280;5493;48.884;8.338;2023-09-18T06:09:53;99537.09;;;21.39;100.00
10881;BME280;5493;48.884;8.338;2023-09-18T06:12:19;99536.94;;;21.58;100.00
10881;BME280;5493;48.884;8.338;2023-09-18T06:14:48;99529.59;;;21.67;100.00
10881;BME280;5493;48.884;8.338;2023-09-18T06:17:15;99536.44;;;21.56;100.00
10881;BME280;5493;48.884;8.338;2023-09-18T06:19:41;99534.25;;;21.44;100.00
10881;BME280;5493;48.884;8.338;2023-09-18T06:22:08;99536.44;;;21.56;100.00
10881;BME280;5493;48.884;8.338;2023-09-18T06:24:35;99540.41;;;21.50;100.00
10881;BME280;5493;48.884;8.338;2023-09-18T06:27:02;99542.78;;;21.43;100.00
10881;BME280;5493;48.884;8.338;2023-09-18T06:29:29;99544.28;;;21.49;100.00
10881;BME280;5493;48.884;8.338;2023-09-18T06:31:57;99543.81;;;21.33;100.00
10881;BME280;5493;48.884;8.338;2023-09-18T06:34:24;99542.97;;;21.46;100.00
10881;BME280;5493;48.884;8.338;2023-09-18T06:36:50;99556.19;;;21.44;100.00
10881;BME280;5493;48.884;8.338;2023-09-18T06:39:17;99577.94;;;21.41;100.00
10881;BME280;5493;48.884;8.338;2023-09-18T06:41:45;99588.91;;;21.27;100.00
10881;BME280;5493;48.884;8.338;2023-09-18T06:44:12;99599.78;;;21.05;100.00
10881;BME280;5493;48.884;8.338;2023-09-18T06:46:38;99608.25;;;21.22;100.00
10881;BME280;5493;48.884;8.338;2023-09-18T06:49:07;99600.81;;;21.23;100.00
10881;BME280;5493;48.884;8.338;2023-09-18T06:51:33;99602.13;;;21.25;100.00
10881;BME280;5493;48.884;8.338;2023-09-18T06:54:00;99610.06;;;21.27;100.00
10881;BME280;5493;48.884;8.338;2023-09-18T06:56:28;99612.22;;;21.16;100.00
10881;BME280;5493;48.884;8.338;2023-09-18T06:58:54;99613.00;;;21.30;100.00
10881;BME280;5493;48.884;8.338;2023-09-18T07:01:21;99609.66;;;21.33;100.00
10881;BME280;5493;48.884;8.338;2023-09-18T07:03:47;99601.50;;;21.42;100.00
10881;BME280;5493;48.884;8.338;2023-09-18T07:06:17;99597.25;;;21.36;100.00
10881;BME280;5493;48.884;8.338;2023-09-18T07:08:45;99597.00;;;21.46;100.00
10881;BME280;5493;48.884;8.338;2023-09-18T07:11:12;99591.19;;;21.61;100.00
10881;BME280;5493;48.884;8.338;2023-09-18T07:13:39;99594.28;;;21.46;100.00
10881;BME280;5493;48.884;8.338;2023-09-18T07:16:06;99596.38;;;21.63;100.00
10881;BME280;5493;48.884;8.338;2023-09-18T07:18:32;99588.53;;;21.70;100.00
10881;BME280;5493;48.884;8.338;2023-09-18T07:20:59;99600.63;;;21.69;100.00
10881;BME280;5493;48.884;8.338;2023-09-18T07:23:27;99595.63;;;21.71;100.00
10881;BME280;5493;48.884;8.338;2023-09-18T07:25:53;99593.16;;;21.83;100.00
10881;BME280;5493;48.884;8.338;2023-09-18T07:28:20;99588.59;;;21.92;100.00
10881;BME280;5493;48.884;8.338;2023-09-18T07:30:47;99583.88;;;21.92;100.00
10881;BME280;5493;48.884;8.338;2023-09-18T07:33:14;99600.63;;;22.04;100.00
10881;BME280;5493;48.884;8.338;2023-09-18T07:35:45;99601.19;;;22.15;100.00
10881;BME280;5493;48.884;8.338;2023-09-18T07:38:12;99604.75;;;22.16;100.00
10881;BME280;5493;48.884;8.338;2023-09-18T07:40:40;99598.94;;;22.17;100.00
10881;BME280;5493;48.884;8.338;2023-09-18T07:43:07;99600.13;;;22.02;100.00
10881;BME280;5493;48.884;8.338;2023-09-18T07:45:33;99603.00;;;22.20;100.00
10881;BME280;5493;48.884;8.338;2023-09-18T07:48:00;99587.44;;;22.15;100.00
10881;BME280;5493;48.884;8.338;2023-09-18T07:50:27;99601.56;;;22.22;100.00
10881;BME280;5493;48.884;8.338;2023-09-18T07:52:53;99591.28;;;22.05;100.00
10881;BME280;5493;48.884;8.338;2023-09-18T07:55:20;99595.84;;;22.10;100.00
10881;BME280;5493;48.884;8.338;2023-09-18T07:57:48;99597.22;;;21.99;100.00
10881;BME280;5493;48.884;8.338;2023-09-18T08:00:17;99605.25;;;21.95;100.00
10881;BME280;5493;48.884;8.338;2023-09-18T08:02:44;99600.69;;;21.91;100.00
10881;BME280;5493;48.884;8.338;2023-09-18T08:05:11;99599.13;;;21.98;100.00
10881;BME280;5493;48.884;8.338;2023-09-18T08:07:38;99599.31;;;22.02;100.00
10881;BME280;5493;48.884;8.338;2023-09-18T08:10:07;99590.28;;;22.01;100.00
10881;BME280;5493;48.884;8.338;2023-09-18T08:12:34;99584.59;;;21.98;100.00
10881;BME280;5493;48.884;8.338;2023-09-18T08:15:02;99572.78;;;21.97;100.00
10881;BME280;5493;48.884;8.338;2023-09-18T08:17:30;99553.66;;;22.06;100.00
10881;BME280;5493;48.884;8.338;2023-09-18T08:19:57;99549.38;;;22.00;100.00
10881;BME280;5493;48.884;8.338;2023-09-18T08:22:23;99566.63;;;21.92;100.00
10881;BME280;5493;48.884;8.338;2023-09-18T08:24:50;99574.13;;;21.86;100.00
10881;BME280;5493;48.884;8.338;2023-09-18T08:27:18;99568.56;;;21.91;100.00
10881;BME280;5493;48.884;8.338;2023-09-18T08:29:45;99549.91;;;22.02;100.00
10881;BME280;5493;48.884;8.338;2023-09-18T08:32:13;99562.25;;;22.13;100.00
10881;BME280;5493;48.884;8.338;2023-09-18T08:34:40;99559.06;;;21.97;100.00
10881;BME280;5493;48.884;8.338;2023-09-18T08:37:06;99566.94;;;21.90;100.00
10881;BME280;5493;48.884;8.338;2023-09-18T08:39:34;99564.44;;;22.02;100.00
10881;BME280;5493;48.884;8.338;2023-09-18T08:42:04;99571.34;;;22.00;100.00
10881;BME280;5493;48.884;8.338;2023-09-18T08:44:31;99564.75;;;22.23;100.00
10881;BME280;5493;48.884;8.338;2023-09-18T08:46:58;99565.91;;;22.31;100.00
10881;BME280;5493;48.884;8.338;2023-09-18T08:49:26;99560.28;;;22.36;100.00
10881;BME280;5493;48.884;8.338;2023-09-18T08:51:55;99561.41;;;22.35;100.00
10881;BME280;5493;48.884;8.338;2023-09-18T08:54:22;99549.25;;;22.27;100.00
10881;BME280;5493;48.884;8.338;2023-09-18T08:56:50;99562.47;;;22.25;100.00
10881;BME280;5493;48.884;8.338;2023-09-18T08:59:17;99563.28;;;22.26;100.00
10881;BME280;5493;48.884;8.338;2023-09-18T09:01:44;99590.44;;;22.27;100.00
10881;BME280;5493;48.884;8.338;2023-09-18T09:04:11;99595.25;;;22.22;100.00
10881;BME280;5493;48.884;8.338;2023-09-18T09:06:39;99611.16;;;22.33;100.00
10881;BME280;5493;48.884;8.338;2023-09-18T09:09:05;99616.66;;;22.33;100.00
10881;BME280;5493;48.884;8.338;2023-09-18T09:11:33;99621.69;;;22.40;100.00
10881;BME280;5493;48.884;8.338;2023-09-18T09:16:38;99635.88;;;22.33;100.00
10881;BME280;5493;48.884;8.338;2023-09-18T09:19:05;99641.13;;;22.43;100.00
10881;BME280;5493;48.884;8.338;2023-09-18T09:21:41;99628.94;;;22.36;100.00
10881;BME280;5493;48.884;8.338;2023-09-18T09:24:09;99620.84;;;22.62;100.00
10881;BME280;5493;48.884;8.338;2023-09-18T09:26:39;99608.28;;;22.61;100.00
10881;BME280;5493;48.884;8.338;2023-09-18T09:29:15;99609.31;;;22.73;100.00
10881;BME280;5493;48.884;8.338;2023-09-18T09:31:44;99605.81;;;22.81;100.00
10881;BME280;5493;48.884;8.338;2023-09-18T09:34:10;99592.38;;;22.80;100.00
10881;BME280;5493;48.884;8.338;2023-09-18T09:36:51;99588.88;;;22.66;100.00
10881;BME280;5493;48.884;8.338;2023-09-18T09:39:17;99593.88;;;22.86;100.00
10881;BME280;5493;48.884;8.338;2023-09-18T09:41:45;99582.19;;;22.80;100.00
10881;BME280;5493;48.884;8.338;2023-09-18T09:44:13;99586.13;;;22.96;100.00
10881;BME280;5493;48.884;8.338;2023-09-18T09:46:45;99586.50;;;23.03;100.00
10881;BME280;5493;48.884;8.338;2023-09-18T09:49:12;99598.25;;;22.95;100.00
10881;BME280;5493;48.884;8.338;2023-09-18T09:51:42;99598.91;;;23.01;100.00
10881;BME280;5493;48.884;8.338;2023-09-18T09:54:09;99588.56;;;22.98;100.00
10881;BME280;5493;48.884;8.338;2023-09-18T09:56:43;99593.19;;;23.28;100.00
10881;BME280;5493;48.884;8.338;2023-09-18T09:59:11;99594.78;;;23.21;100.00
10881;BME280;5493;48.884;8.338;2023-09-18T10:01:38;99597.00;;;23.10;100.00
10881;BME280;5493;48.884;8.338;2023-09-18T10:04:09;99608.50;;;23.12;100.00
10881;BME280;5493;48.884;8.338;2023-09-18T10:06:36;99605.56;;;23.09;100.00
10881;BME280;5493;48.884;8.338;2023-09-18T10:09:06;99620.00;;;23.14;100.00
10881;BME280;5493;48.884;8.338;2023-09-18T10:11:39;99633.75;;;23.23;100.00
10881;BME280;5493;48.884;8.338;2023-09-18T10:14:10;99650.72;;;23.08;100.00
10881;BME280;5493;48.884;8.338;2023-09-18T10:16:40;99613.66;;;23.05;100.00
10881;BME280;5493;48.884;8.338;2023-09-18T10:19:17;99604.59;;;23.04;100.00
10881;BME280;5493;48.884;8.338;2023-09-18T10:21:55;99617.25;;;23.14;100.00
10881;BME280;5493;48.884;8.338;2023-09-18T10:24:28;99616.56;;;23.09;100.00
10881;BME280;5493;48.884;8.338;2023-09-18T10:26:59;99614.34;;;23.11;100.00
10881;BME280;5493;48.884;8.338;2023-09-18T10:29:29;99605.41;;;23.05;100.00
10881;BME280;5493;48.884;8.338;2023-09-18T10:31:56;99611.28;;;23.21;100.00
10881;BME280;5493;48.884;8.338;2023-09-18T10:34:24;99599.94;;;23.14;100.00
10881;BME280;5493;48.884;8.338;2023-09-18T10:36:52;99602.81;;;23.09;100.00
10881;BME280;5493;48.884;8.338;2023-09-18T10:39:20;99605.00;;;23.29;100.00
10881;BME280;5493;48.884;8.338;2023-09-18T10:41:51;99597.09;;;23.36;100.00
10881;BME280;5493;48.884;8.338;2023-09-18T10:44:19;99594.88;;;23.46;100.00
10881;BME280;5493;48.884;8.338;2023-09-18T10:46:45;99588.50;;;23.29;100.00
10881;BME280;5493;48.884;8.338;2023-09-18T10:49:12;99590.81;;;23.52;100.00
10881;BME280;5493;48.884;8.338;2023-09-18T10:51:39;99589.19;;;23.43;100.00
10881;BME280;5493;48.884;8.338;2023-09-18T10:54:08;99605.91;;;23.72;100.00
10881;BME280;5493;48.884;8.338;2023-09-18T10:56:34;99603.97;;;23.73;100.00
10881;BME280;5493;48.884;8.338;2023-09-18T10:59:06;99610.28;;;23.82;100.00
10881;BME280;5493;48.884;8.338;2023-09-18T11:01:34;99607.34;;;23.95;100.00
10881;BME280;5493;48.884;8.338;2023-09-18T11:04:03;99613.03;;;23.99;100.00
10881;BME280;5493;48.884;8.338;2023-09-18T11:09:44;99606.22;;;23.96;100.00
10881;BME280;5493;48.884;8.338;2023-09-18T11:12:12;99602.16;;;24.02;100.00
10881;BME280;5493;48.884;8.338;2023-09-18T11:14:44;99611.59;;;24.19;100.00
10881;BME280;5493;48.884;8.338;2023-09-18T11:17:31;99607.38;;;23.87;100.00
10881;BME280;5493;48.884;8.338;2023-09-18T11:20:06;99612.22;;;23.98;100.00
10881;BME280;5493;48.884;8.338;2023-09-18T11:22:35;99621.78;;;24.01;100.00
10881;BME280;5493;48.884;8.338;2023-09-18T11:28:14;99622.59;;;24.27;100.00
10881;BME280;5493;48.884;8.338;2023-09-18T11:30:50;99621.41;;;24.63;100.00
10881;BME280;5493;48.884;8.338;2023-09-18T11:33:29;99629.00;;;24.74;100.00
10881;BME280;5493;48.884;8.338;2023-09-18T11:35:56;99622.16;;;24.80;100.00
10881;BME280;5493;48.884;8.338;2023-09-18T11:38:22;99613.59;;;24.73;100.00
10881;BME280;5493;48.884;8.338;2023-09-18T11:40:49;99615.81;;;24.80;100.00
10881;BME280;5493;48.884;8.338;2023-09-18T11:43:20;99630.66;;;24.58;100.00
10881;BME280;5493;48.884;8.338;2023-09-18T11:45:52;99621.50;;;24.75;100.00
10881;BME280;5493;48.884;8.338;2023-09-18T11:48:21;99624.81;;;24.51;100.00
10881;BME280;5493;48.884;8.338;2023-09-18T11:50:51;99589.91;;;24.64;100.00
10881;BME280;5493;48.884;8.338;2023-09-18T11:53:19;99609.66;;;24.83;100.00
10881;BME280;5493;48.884;8.338;2023-09-18T11:55:47;99588.25;;;24.80;100.00
10881;BME280;5493;48.884;8.338;2023-09-18T11:58:14;99594.56;;;24.89;100.00
10881;BME280;5493;48.884;8.338;2023-09-18T12:00:41;99602.63;;;25.03;100.00
10881;BME280;5493;48.884;8.338;2023-09-18T12:03:20;99598.63;;;24.83;100.00
10881;BME280;5493;48.884;8.338;2023-09-18T12:05:55;99608.66;;;25.25;100.00
10881;BME280;5493;48.884;8.338;2023-09-18T12:08:22;99604.38;;;25.07;100.00
10881;BME280;5493;48.884;8.338;2023-09-18T12:10:51;99605.75;;;25.22;100.00
10881;BME280;5493;48.884;8.338;2023-09-18T12:13:18;99597.09;;;25.03;100.00
10881;BME280;5493;48.884;8.338;2023-09-18T12:15:46;99605.41;;;25.32;100.00
10881;BME280;5493;48.884;8.338;2023-09-18T12:18:14;99599.09;;;25.23;100.00
10881;BME280;5493;48.884;8.338;2023-09-18T12:20:48;99600.25;;;25.51;100.00
10881;BME280;5493;48.884;8.338;2023-09-18T12:23:15;99594.72;;;25.51;100.00
10881;BME280;5493;48.884;8.338;2023-09-18T12:25:45;99586.94;;;25.53;100.00
10881;BME280;5493;48.884;8.338;2023-09-18T12:28:13;99592.59;;;25.57;100.00
10881;BME280;5493;48.884;8.338;2023-09-18T12:30:40;99584.38;;;25.89;100.00
10881;BME280;5493;48.884;8.338;2023-09-18T12:33:07;99586.63;;;26.08;100.00
10881;BME280;5493;48.884;8.338;2023-09-18T12:35:34;99599.72;;;25.99;100.00
10881;BME280;5493;48.884;8.338;2023-09-18T12:38:13;99595.28;;;25.86;100.00
10881;BME280;5493;48.884;8.338;2023-09-18T12:40:40;99595.09;;;25.70;100.00
10881;BME280;5493;48.884;8.338;2023-09-18T12:43:06;99588.72;;;25.90;100.00
10881;BME280;5493;48.884;8.338;2023-09-18T12:45:34;99594.81;;;25.84;100.00
10881;BME280;5493;48.884;8.338;2023-09-18T12:48:01;99592.31;;;25.70;100.00
10881;BME280;5493;48.884;8.338;2023-09-18T12:50:29;99583.06;;;25.87;100.00
10881;BME280;5493;48.884;8.338;2023-09-18T12:53:08;99586.19;;;26.39;100.00
10881;BME280;5493;48.884;8.338;2023-09-18T12:55:35;99586.38;;;26.22;100.00
10881;BME280;5493;48.884;8.338;2023-09-18T12:58:02;99587.94;;;27.13;100.00
10881;BME280;5493;48.884;8.338;2023-09-18T13:00:30;99581.91;;;27.35;100.00
10881;BME280;5493;48.884;8.338;2023-09-18T13:02:57;99581.00;;;27.19;100.00
10881;BME280;5493;48.884;8.338;2023-09-18T13:05:24;99579.38;;;27.54;100.00
10881;BME280;5493;48.884;8.338;2023-09-18T13:07:52;99568.63;;;27.65;100.00
10881;BME280;5493;48.884;8.338;2023-09-18T13:10:20;99559.97;;;27.42;100.00
10881;BME280;5493;48.884;8.338;2023-09-18T13:12:49;99565.91;;;27.80;100.00